Time;durP1;ratioP1;P1;durP2;ratioP2;P2;SDS_P1;SDS_P2;PMS_P1;PMS_P2;Temp;Humidity;BMP_temperature;BMP_pressure;BME280_temperature;BME280_humidity;BME280_pressure;Samples;Min_cycle;Max_cycle;Signal;HPM_P1;HPM_P2
2023/05/17 00:00:44;;;;;;;4.22;1.02;;;;;;;;;;4965767;28;20030;-81
2023/05/17 00:03:09;;;;;;;5.05;1.13;;;;;;;;;;4976102;28;20050;-78
2023/05/17 00:05:35;;;;;;;3.58;1.15;;;;;;;;;;4976567;28;20034;-81
2023/05/17 00:08:00;;;;;;;5.15;1.40;;;;;;;;;;4993804;28;20364;-80
2023/05/17 00:10:25;;;;;;;5.10;1.20;;;;;;;;;;4968445;28;20062;-80
2023/05/17 00:12:51;;;;;;;4.10;1.17;;;;;;;;;;4978956;28;20044;-80
2023/05/17 00:15:16;;;;;;;5.75;1.10;;;;;;;;;;4959737;28;20055;-80
2023/05/17 00:17:42;;;;;;;7.45;1.30;;;;;;;;;;4976152;28;20120;-80
2023/05/17 00:20:07;;;;;;;4.25;1.40;;;;;;;;;;4978525;28;20117;-79
2023/05/17 00:22:33;;;;;;;5.03;1.25;;;;;;;;;;4990841;28;20637;-81
2023/05/17 00:24:58;;;;;;;5.88;1.65;;;;;;;;;;4976946;28;20095;-81
2023/05/17 00:27:24;;;;;;;4.38;1.58;;;;;;;;;;4994179;28;20056;-81
2023/05/17 00:29:49;;;;;;;5.57;1.30;;;;;;;;;;4960581;28;20045;-80
2023/05/17 00:32:14;;;;;;;6.45;1.50;;;;;;;;;;4974555;28;20430;-81
2023/05/17 00:34:40;;;;;;;5.75;1.52;;;;;;;;;;4975104;28;20030;-80
2023/05/17 00:37:05;;;;;;;4.70;1.42;;;;;;;;;;4993230;28;20041;-81
2023/05/17 00:39:31;;;;;;;5.25;1.60;;;;;;;;;;4991198;28;20034;-80
2023/05/17 00:41:56;;;;;;;5.15;1.70;;;;;;;;;;4975418;28;20038;-80
2023/05/17 00:44:21;;;;;;;5.32;1.48;;;;;;;;;;4991596;28;20132;-79
2023/05/17 00:46:49;;;;;;;6.32;1.58;;;;;;;;;;4990893;28;20038;-80
2023/05/17 00:49:14;;;;;;;4.85;2.00;;;;;;;;;;4974155;28;20049;-79
2023/05/17 00:51:40;;;;;;;5.05;1.63;;;;;;;;;;4973435;28;20091;-80
2023/05/17 00:54:05;;;;;;;7.45;1.73;;;;;;;;;;4975398;28;20190;-79
2023/05/17 00:56:31;;;;;;;9.07;1.75;;;;;;;;;;4973202;28;20471;-80
2023/05/17 00:58:57;;;;;;;6.55;1.10;;;;;;;;;;4975908;28;20037;-81
2023/05/17 01:01:24;;;;;;;8.88;1.70;;;;;;;;;;4973240;28;20517;-80
2023/05/17 01:03:50;;;;;;;7.50;1.83;;;;;;;;;;4977875;28;20038;-80
2023/05/17 01:06:15;;;;;;;5.15;1.90;;;;;;;;;;4975487;28;20044;-80
2023/05/17 01:08:41;;;;;;;7.10;1.52;;;;;;;;;;4993297;28;20038;-80
2023/05/17 01:11:18;;;;;;;8.63;1.55;;;;;;;;;;4974261;28;20040;-79
2023/05/17 01:14:08;;;;;;;7.03;1.50;;;;;;;;;;4993705;28;20042;-80
2023/05/17 01:16:50;;;;;;;5.30;1.60;;;;;;;;;;4980053;28;20382;-81
2023/05/17 01:19:40;;;;;;;4.93;1.67;;;;;;;;;;4975477;28;20039;-80
2023/05/17 01:22:14;;;;;;;6.97;1.60;;;;;;;;;;4975889;28;20085;-80
2023/05/17 01:25:17;;;;;;;6.18;1.70;;;;;;;;;;4992487;28;20072;-80
2023/05/17 01:27:44;;;;;;;6.65;2.00;;;;;;;;;;4991660;28;20034;-80
2023/05/17 01:30:12;;;;;;;7.07;1.80;;;;;;;;;;4958450;28;20047;-80
2023/05/17 01:32:40;;;;;;;6.95;1.90;;;;;;;;;;4956817;28;20144;-79
2023/05/17 01:35:05;;;;;;;8.27;2.00;;;;;;;;;;4977121;28;20045;-80
2023/05/17 01:37:31;;;;;;;6.65;1.88;;;;;;;;;;4974353;28;20390;-80
2023/05/17 01:39:56;;;;;;;10.57;1.98;;;;;;;;;;4981132;28;20034;-81
2023/05/17 01:42:23;;;;;;;4.97;1.80;;;;;;;;;;4979030;28;20037;-81
2023/05/17 01:45:15;;;;;;;7.45;2.10;;;;;;;;;;4979339;28;20045;-80
2023/05/17 01:48:04;;;;;;;7.85;2.00;;;;;;;;;;4995898;28;20042;-80
2023/05/17 01:50:31;;;;;;;5.47;1.83;;;;;;;;;;4998191;28;20105;-80
2023/05/17 01:53:18;;;;;;;9.30;2.40;;;;;;;;;;4961050;28;20144;-80
2023/05/17 01:55:56;;;;;;;11.20;2.60;;;;;;;;;;4997740;28;20030;-80
2023/05/17 01:58:24;;;;;;;8.75;2.00;;;;;;;;;;4962565;28;20046;-81
2023/05/17 02:00:52;;;;;;;6.40;1.70;;;;;;;;;;4998388;28;20034;-80
2023/05/17 02:03:19;;;;;;;4.88;1.70;;;;;;;;;;4997160;28;20037;-80
2023/05/17 02:05:44;;;;;;;5.97;1.83;;;;;;;;;;4977648;28;20113;-80
2023/05/17 02:08:10;;;;;;;8.07;2.08;;;;;;;;;;4977360;28;20086;-80
2023/05/17 02:10:35;;;;;;;7.57;1.90;;;;;;;;;;4994773;28;20045;-81
2023/05/17 02:13:01;;;;;;;6.00;1.90;;;;;;;;;;4979571;28;20030;-80
2023/05/17 02:15:26;;;;;;;6.53;1.70;;;;;;;;;;4996226;28;24873;-80
2023/05/17 02:17:52;;;;;;;8.80;2.03;;;;;;;;;;4995441;28;20034;-81
2023/05/17 02:20:17;;;;;;;4.93;1.92;;;;;;;;;;4978685;28;20181;-80
2023/05/17 02:22:42;;;;;;;6.63;1.77;;;;;;;;;;4962638;28;20060;-80
2023/05/17 02:25:08;;;;;;;8.02;2.22;;;;;;;;;;4974304;28;20047;-79
2023/05/17 02:27:34;;;;;;;10.52;2.25;;;;;;;;;;4955710;28;20046;-80
2023/05/17 02:30:00;;;;;;;7.65;2.30;;;;;;;;;;4973007;28;20035;-80
2023/05/17 02:32:26;;;;;;;5.53;1.83;;;;;;;;;;4953704;28;20553;-80
2023/05/17 02:34:52;;;;;;;7.00;1.92;;;;;;;;;;4955918;28;20031;-81
2023/05/17 02:37:17;;;;;;;8.38;2.42;;;;;;;;;;4940415;28;20039;-80
2023/05/17 02:39:42;;;;;;;4.75;1.83;;;;;;;;;;4970060;28;20027;-80
2023/05/17 02:42:08;;;;;;;8.25;2.65;;;;;;;;;;4937782;28;20038;-80
2023/05/17 02:44:33;;;;;;;6.13;1.90;;;;;;;;;;4956351;28;20042;-80
2023/05/17 02:46:59;;;;;;;7.78;2.20;;;;;;;;;;4953278;28;20510;-81
2023/05/17 02:49:24;;;;;;;5.95;2.13;;;;;;;;;;4954659;28;20985;-81
2023/05/17 02:51:49;;;;;;;7.57;2.00;;;;;;;;;;4970991;28;20035;-80
2023/05/17 02:54:15;;;;;;;7.28;2.20;;;;;;;;;;4957094;28;20053;-80
2023/05/17 02:56:40;;;;;;;7.97;2.30;;;;;;;;;;4954941;28;20031;-80
2023/05/17 02:59:06;;;;;;;6.10;1.77;;;;;;;;;;4971659;28;20118;-80
2023/05/17 03:01:31;;;;;;;6.07;2.10;;;;;;;;;;4954706;28;20062;-80
2023/05/17 03:03:56;;;;;;;9.13;2.35;;;;;;;;;;4955996;28;20514;-81
2023/05/17 03:06:22;;;;;;;7.68;2.10;;;;;;;;;;4969891;28;20050;-80
2023/05/17 03:08:47;;;;;;;5.35;2.28;;;;;;;;;;4955240;28;20062;-80
2023/05/17 03:11:12;;;;;;;8.32;1.90;;;;;;;;;;4940370;28;20031;-80
2023/05/17 03:13:38;;;;;;;7.40;2.60;;;;;;;;;;4955329;28;20035;-79
2023/05/17 03:16:03;;;;;;;5.40;1.85;;;;;;;;;;4954092;28;20038;-81
2023/05/17 03:18:29;;;;;;;8.52;2.40;;;;;;;;;;4956776;28;20035;-80
2023/05/17 03:20:54;;;;;;;6.47;2.08;;;;;;;;;;4957501;28;20043;-80
2023/05/17 03:23:20;;;;;;;6.57;2.28;;;;;;;;;;4971857;28;20043;-81
2023/05/17 03:25:45;;;;;;;9.63;2.97;;;;;;;;;;4969108;28;20043;-80
2023/05/17 03:28:11;;;;;;;8.32;2.15;;;;;;;;;;4971294;28;20445;-80
2023/05/17 03:30:36;;;;;;;5.88;2.50;;;;;;;;;;4955021;28;20035;-80
2023/05/17 03:33:02;;;;;;;8.93;2.40;;;;;;;;;;4955496;28;20035;-81
2023/05/17 03:35:27;;;;;;;6.45;2.50;;;;;;;;;;4968647;28;20107;-81
2023/05/17 03:37:52;;;;;;;6.13;2.13;;;;;;;;;;4955110;28;20114;-81
2023/05/17 03:40:18;;;;;;;9.95;2.42;;;;;;;;;;4972442;28;20416;-80
2023/05/17 03:42:43;;;;;;;11.10;3.20;;;;;;;;;;4971699;28;20090;-80
2023/05/17 03:45:09;;;;;;;10.27;2.42;;;;;;;;;;4955918;28;20472;-79
2023/05/17 03:47:34;;;;;;;8.80;2.35;;;;;;;;;;4956535;28;20462;-81
2023/05/17 03:50:00;;;;;;;9.02;2.38;;;;;;;;;;4956543;28;20035;-80
2023/05/17 03:52:25;;;;;;;8.88;2.58;;;;;;;;;;4954943;28;20046;-80
2023/05/17 03:54:50;;;;;;;7.53;2.60;;;;;;;;;;4968749;28;20035;-81
2023/05/17 03:57:16;;;;;;;6.25;2.03;;;;;;;;;;4938290;28;20043;-80
2023/05/17 03:59:41;;;;;;;9.82;3.20;;;;;;;;;;4956933;28;20039;-80
2023/05/17 04:02:07;;;;;;;5.80;1.92;;;;;;;;;;4951659;28;20059;-80
2023/05/17 04:04:32;;;;;;;8.25;2.53;;;;;;;;;;4956601;28;20660;-80
2023/05/17 04:06:58;;;;;;;7.28;2.40;;;;;;;;;;4955110;28;20043;-81
2023/05/17 04:09:23;;;;;;;6.65;2.25;;;;;;;;;;4968280;28;20058;-80
2023/05/17 04:11:48;;;;;;;8.18;2.60;;;;;;;;;;4968508;28;20038;-80
2023/05/17 04:14:14;;;;;;;8.70;2.55;;;;;;;;;;4969974;28;20050;-80
2023/05/17 04:16:39;;;;;;;8.05;2.38;;;;;;;;;;4968540;28;20062;-79
2023/05/17 04:19:05;;;;;;;9.52;2.50;;;;;;;;;;4953877;28;20046;-80
2023/05/17 04:21:30;;;;;;;8.75;2.45;;;;;;;;;;4939152;28;20054;-80
2023/05/17 04:23:56;;;;;;;8.13;2.53;;;;;;;;;;4960927;28;20035;-80
2023/05/17 04:26:21;;;;;;;6.05;2.15;;;;;;;;;;4974850;28;20723;-80
2023/05/17 04:28:46;;;;;;;6.57;2.10;;;;;;;;;;4993189;28;20109;-80
2023/05/17 04:31:15;;;;;;;9.40;2.70;;;;;;;;;;4993707;28;20049;-81
2023/05/17 04:33:40;;;;;;;10.70;2.97;;;;;;;;;;4985018;28;20433;-81
2023/05/17 04:36:06;;;;;;;14.25;3.33;;;;;;;;;;4992963;28;20044;-80
2023/05/17 04:38:31;;;;;;;7.15;2.47;;;;;;;;;;4975506;28;20643;-80
2023/05/17 04:41:02;;;;;;;6.78;2.40;;;;;;;;;;4958631;28;20026;-80
2023/05/17 04:43:28;;;;;;;8.05;2.28;;;;;;;;;;4993999;28;20045;-80
2023/05/17 04:45:57;;;;;;;7.65;2.47;;;;;;;;;;4973045;28;20046;-81
2023/05/17 04:48:24;;;;;;;8.02;2.38;;;;;;;;;;4960341;28;20038;-79
2023/05/17 04:50:50;;;;;;;7.55;2.38;;;;;;;;;;4990822;28;20054;-80
2023/05/17 04:53:15;;;;;;;9.70;2.60;;;;;;;;;;4994279;28;20108;-80
2023/05/17 04:55:41;;;;;;;7.68;3.03;;;;;;;;;;4975310;28;20026;-79
2023/05/17 04:58:08;;;;;;;11.18;2.55;;;;;;;;;;4991067;28;20092;-80
2023/05/17 05:00:33;;;;;;;7.72;2.40;;;;;;;;;;4961070;28;20180;-80
2023/05/17 05:03:00;;;;;;;8.52;2.30;;;;;;;;;;4999430;28;20216;-80
2023/05/17 05:05:26;;;;;;;5.90;2.50;;;;;;;;;;4961885;28;20576;-81
2023/05/17 05:07:51;;;;;;;10.40;2.58;;;;;;;;;;4979593;28;20061;-80
2023/05/17 05:10:17;;;;;;;10.82;2.95;;;;;;;;;;4993899;28;20046;-80
2023/05/17 05:12:43;;;;;;;7.10;2.80;;;;;;;;;;4974244;28;20564;-78
2023/05/17 05:15:09;;;;;;;8.07;2.60;;;;;;;;;;4976357;28;20109;-78
2023/05/17 05:17:35;;;;;;;10.40;2.40;;;;;;;;;;4975507;28;20058;-79
2023/05/17 05:20:00;;;;;;;8.48;2.55;;;;;;;;;;4973895;28;20447;-79
2023/05/17 05:22:25;;;;;;;8.18;2.45;;;;;;;;;;4975462;28;20030;-80
2023/05/17 05:24:51;;;;;;;8.52;2.65;;;;;;;;;;4972448;28;20409;-79
2023/05/17 05:27:16;;;;;;;9.65;2.40;;;;;;;;;;4973650;28;20034;-78
2023/05/17 05:29:42;;;;;;;7.32;2.63;;;;;;;;;;4974171;28;20050;-78
2023/05/17 05:32:07;;;;;;;11.05;2.72;;;;;;;;;;4955432;28;20153;-79
2023/05/17 05:34:33;;;;;;;6.70;2.42;;;;;;;;;;4974188;28;20089;-79
2023/05/17 05:36:58;;;;;;;7.13;2.00;;;;;;;;;;4955393;28;20073;-79
2023/05/17 05:39:24;;;;;;;7.47;2.42;;;;;;;;;;4972903;28;20046;-79
2023/05/17 05:41:50;;;;;;;8.63;2.00;;;;;;;;;;4970108;28;20049;-77
2023/05/17 05:44:16;;;;;;;6.70;1.73;;;;;;;;;;4973253;28;20043;-78
2023/05/17 05:46:41;;;;;;;4.28;1.85;;;;;;;;;;4973130;28;20038;-79
2023/05/17 05:49:07;;;;;;;5.63;1.92;;;;;;;;;;4958380;28;20058;-79
2023/05/17 05:51:33;;;;;;;8.50;2.05;;;;;;;;;;4987648;28;20034;-79
2023/05/17 05:53:58;;;;;;;7.63;2.35;;;;;;;;;;4974195;28;20061;-80
2023/05/17 05:56:26;;;;;;;6.07;2.00;;;;;;;;;;4970943;28;20039;-80
2023/05/17 05:58:51;;;;;;;13.10;2.53;;;;;;;;;;4977504;28;20031;-78
2023/05/17 06:01:17;;;;;;;8.75;2.33;;;;;;;;;;4975713;28;20085;-78
2023/05/17 06:03:42;;;;;;;8.60;2.03;;;;;;;;;;4958841;28;20520;-77
2023/05/17 06:06:07;;;;;;;10.63;2.20;;;;;;;;;;4976570;28;20081;-77
2023/05/17 06:08:33;;;;;;;10.05;2.05;;;;;;;;;;4978998;28;20031;-77
2023/05/17 06:10:58;;;;;;;9.60;1.80;;;;;;;;;;4993109;28;20038;-78
2023/05/17 06:13:24;;;;;;;7.28;1.83;;;;;;;;;;4974746;28;20035;-78
2023/05/17 06:15:49;;;;;;;6.60;1.80;;;;;;;;;;4957156;28;20078;-78
2023/05/17 06:18:15;;;;;;;7.05;1.77;;;;;;;;;;4978026;28;20522;-78
2023/05/17 06:20:40;;;;;;;7.43;1.70;;;;;;;;;;4975402;28;20034;-78
2023/05/17 06:23:06;;;;;;;6.95;1.65;;;;;;;;;;4992803;28;20501;-78
2023/05/17 06:25:31;;;;;;;9.43;1.75;;;;;;;;;;4989977;28;20046;-78
2023/05/17 06:28:17;;;;;;;6.68;1.77;;;;;;;;;;4998826;28;20045;-78
2023/05/17 06:30:42;;;;;;;7.45;1.92;;;;;;;;;;4935978;29;20040;-78
2023/05/17 06:33:08;;;;;;;9.07;2.05;;;;;;;;;;4925305;29;20118;-78
2023/05/17 06:35:34;;;;;;;7.03;1.40;;;;;;;;;;4938027;29;20097;-78
2023/05/17 06:37:59;;;;;;;5.80;1.63;;;;;;;;;;4924823;29;20058;-78
2023/05/17 06:40:25;;;;;;;8.23;1.48;;;;;;;;;;4936680;29;20154;-78
2023/05/17 06:42:50;;;;;;;6.43;1.50;;;;;;;;;;4921342;29;20163;-78
2023/05/17 06:45:15;;;;;;;7.40;1.85;;;;;;;;;;4912778;29;20508;-78
2023/05/17 06:47:41;;;;;;;7.07;1.80;;;;;;;;;;4938689;29;20042;-78
2023/05/17 06:50:07;;;;;;;8.48;2.25;;;;;;;;;;4937232;29;20178;-78
2023/05/17 06:52:33;;;;;;;6.95;1.98;;;;;;;;;;4926614;29;20039;-78
2023/05/17 06:54:58;;;;;;;9.77;2.00;;;;;;;;;;4924604;29;20092;-78
2023/05/17 06:57:24;;;;;;;9.15;1.95;;;;;;;;;;4936353;29;20422;-78
2023/05/17 06:59:51;;;;;;;7.05;1.80;;;;;;;;;;4936716;29;20047;-78
2023/05/17 07:02:16;;;;;;;7.97;2.05;;;;;;;;;;4937881;29;20039;-78
2023/05/17 07:04:42;;;;;;;6.10;1.30;;;;;;;;;;4923260;29;20051;-78
2023/05/17 07:07:07;;;;;;;5.28;1.20;;;;;;;;;;4930126;28;20532;-78
2023/05/17 07:09:32;;;;;;;8.10;1.80;;;;;;;;;;4982185;28;20157;-78
2023/05/17 07:11:58;;;;;;;7.15;1.48;;;;;;;;;;4997426;28;20744;-78
2023/05/17 07:14:23;;;;;;;5.10;1.50;;;;;;;;;;4981852;28;20038;-78
2023/05/17 07:16:48;;;;;;;8.70;1.85;;;;;;;;;;4997168;28;20065;-78
2023/05/17 07:19:14;;;;;;;6.47;1.35;;;;;;;;;;4990712;28;20608;-78
2023/05/17 07:21:40;;;;;;;6.80;1.50;;;;;;;;;;4977710;28;20030;-78
2023/05/17 07:24:06;;;;;;;5.63;1.38;;;;;;;;;;4978646;28;20046;-78
2023/05/17 07:26:31;;;;;;;8.88;1.80;;;;;;;;;;4995991;28;20092;-78
2023/05/17 07:28:56;;;;;;;7.28;1.15;;;;;;;;;;4980662;28;20118;-78
2023/05/17 07:31:22;;;;;;;6.78;1.10;;;;;;;;;;4998507;28;20387;-77
2023/05/17 07:33:47;;;;;;;7.65;1.30;;;;;;;;;;4979346;28;20034;-78
2023/05/17 07:36:12;;;;;;;7.60;2.03;;;;;;;;;;4994836;28;20042;-78
2023/05/17 07:38:38;;;;;;;9.13;1.33;;;;;;;;;;4996696;28;20031;-78
2023/05/17 07:41:08;;;;;;;7.20;1.52;;;;;;;;;;4962223;28;20129;-78
2023/05/17 07:43:35;;;;;;;5.10;1.30;;;;;;;;;;4981022;28;20117;-78
2023/05/17 07:46:00;;;;;;;9.02;1.30;;;;;;;;;;4962650;28;20088;-78
2023/05/17 07:48:26;;;;;;;6.35;1.38;;;;;;;;;;4979413;28;20046;-78
2023/05/17 07:50:51;;;;;;;7.80;1.50;;;;;;;;;;4977794;28;20117;-78
2023/05/17 07:53:16;;;;;;;5.93;1.20;;;;;;;;;;4977588;28;20042;-77
2023/05/17 07:55:42;;;;;;;4.65;1.00;;;;;;;;;;4994748;28;20030;-78
2023/05/17 07:58:09;;;;;;;3.95;0.98;;;;;;;;;;4979439;28;20442;-78
2023/05/17 08:00:35;;;;;;;9.10;1.70;;;;;;;;;;4992677;28;20109;-77
2023/05/17 08:03:00;;;;;;;5.30;1.52;;;;;;;;;;4977602;28;20434;-78
2023/05/17 08:05:25;;;;;;;6.22;1.25;;;;;;;;;;4994182;28;20056;-78
2023/05/17 08:07:52;;;;;;;7.72;1.30;;;;;;;;;;4998100;28;20041;-78
2023/05/17 08:10:17;;;;;;;6.45;1.35;;;;;;;;;;4979000;28;20576;-78
2023/05/17 08:12:43;;;;;;;6.63;1.48;;;;;;;;;;4996385;28;20037;-78
2023/05/17 08:15:08;;;;;;;6.70;1.30;;;;;;;;;;4978872;28;20117;-78
2023/05/17 08:17:34;;;;;;;7.03;1.20;;;;;;;;;;4994682;28;20044;-78
2023/05/17 08:19:59;;;;;;;7.10;1.77;;;;;;;;;;4995535;28;20037;-78
2023/05/17 08:22:25;;;;;;;4.72;1.42;;;;;;;;;;4979121;28;20141;-78
2023/05/17 08:24:50;;;;;;;4.03;1.10;;;;;;;;;;4997255;28;20048;-78
2023/05/17 08:27:15;;;;;;;5.85;1.40;;;;;;;;;;4990844;28;20125;-78
2023/05/17 08:29:41;;;;;;;7.35;1.30;;;;;;;;;;4996489;28;20038;-78
2023/05/17 08:32:06;;;;;;;5.78;1.20;;;;;;;;;;4994754;28;20050;-78
2023/05/17 08:34:32;;;;;;;6.30;1.10;;;;;;;;;;4995036;28;20838;-78
2023/05/17 08:36:57;;;;;;;6.13;1.50;;;;;;;;;;4975912;28;20046;-78
2023/05/17 08:39:22;;;;;;;7.38;1.25;;;;;;;;;;4994769;28;20360;-78
2023/05/17 08:41:48;;;;;;;4.30;1.00;;;;;;;;;;4974424;28;20058;-78
2023/05/17 08:44:15;;;;;;;6.72;1.40;;;;;;;;;;4978119;28;20038;-78
2023/05/17 08:46:42;;;;;;;5.30;1.25;;;;;;;;;;4974557;28;20044;-79
2023/05/17 08:49:11;;;;;;;5.03;1.40;;;;;;;;;;4992459;28;20405;-79
2023/05/17 08:51:38;;;;;;;7.70;1.20;;;;;;;;;;4992621;28;20048;-79
2023/05/17 08:54:07;;;;;;;5.47;1.08;;;;;;;;;;4957906;28;20042;-84
2023/05/17 08:56:34;;;;;;;5.32;1.23;;;;;;;;;;4990695;28;20030;-80
2023/05/17 08:59:00;;;;;;;4.13;1.40;;;;;;;;;;4975482;28;21047;-80
2023/05/17 09:01:27;;;;;;;6.35;1.10;;;;;;;;;;4956660;28;20049;-80
2023/05/17 09:03:52;;;;;;;5.07;1.40;;;;;;;;;;4975240;28;20037;-80
2023/05/17 09:06:21;;;;;;;4.38;1.20;;;;;;;;;;4974109;28;20787;-80
2023/05/17 09:08:49;;;;;;;10.70;1.95;;;;;;;;;;4974751;28;20484;-80
2023/05/17 09:11:24;;;;;;;5.43;0.95;;;;;;;;;;4976901;28;20049;-79
2023/05/17 09:13:50;;;;;;;8.13;1.50;;;;;;;;;;4992022;28;20109;-80
2023/05/17 09:16:16;;;;;;;4.30;1.30;;;;;;;;;;4974245;28;20521;-79
2023/05/17 09:18:41;;;;;;;5.03;1.08;;;;;;;;;;4975537;28;20409;-79
2023/05/17 09:21:08;;;;;;;4.93;1.00;;;;;;;;;;4994097;28;20049;-80
2023/05/17 09:23:37;;;;;;;4.80;1.13;;;;;;;;;;4973460;28;20041;-80
2023/05/17 09:26:09;;;;;;;4.13;1.00;;;;;;;;;;4992449;28;20046;-80
2023/05/17 09:28:39;;;;;;;4.20;1.17;;;;;;;;;;4976618;28;20207;-79
2023/05/17 09:31:06;;;;;;;6.90;1.00;;;;;;;;;;4973315;28;20069;-80
2023/05/17 09:33:31;;;;;;;5.53;1.10;;;;;;;;;;4991525;28;20088;-79
2023/05/17 09:35:58;;;;;;;5.72;0.98;;;;;;;;;;4972629;28;20035;-79
2023/05/17 09:38:26;;;;;;;8.50;1.65;;;;;;;;;;4955832;28;20125;-80
2023/05/17 09:40:52;;;;;;;3.25;0.88;;;;;;;;;;4975225;28;20037;-80
2023/05/17 09:43:23;;;;;;;5.53;1.08;;;;;;;;;;4964938;28;20034;-80
2023/05/17 09:45:56;;;;;;;4.70;1.15;;;;;;;;;;4991266;28;20486;-79
2023/05/17 09:48:24;;;;;;;5.05;0.95;;;;;;;;;;4957068;28;20039;-79
2023/05/17 09:50:51;;;;;;;6.20;1.02;;;;;;;;;;4974246;28;20049;-80
2023/05/17 09:53:28;;;;;;;5.05;1.27;;;;;;;;;;4975005;28;20125;-80
2023/05/17 09:55:57;;;;;;;5.18;1.02;;;;;;;;;;4972812;28;20042;-79
2023/05/17 09:58:23;;;;;;;5.40;1.00;;;;;;;;;;4958470;28;20604;-80
2023/05/17 10:00:59;;;;;;;4.50;1.00;;;;;;;;;;4980955;28;20061;-79
2023/05/17 10:03:30;;;;;;;8.98;1.35;;;;;;;;;;4979721;28;20105;-80
2023/05/17 10:05:56;;;;;;;4.75;1.23;;;;;;;;;;4975336;28;20260;-79
2023/05/17 10:08:24;;;;;;;8.18;1.50;;;;;;;;;;4997928;28;20054;-79
2023/05/17 10:10:51;;;;;;;3.20;0.80;;;;;;;;;;4978420;28;20038;-80
2023/05/17 10:13:23;;;;;;;3.95;0.93;;;;;;;;;;4979536;28;20048;-80
2023/05/17 10:15:49;;;;;;;4.35;1.00;;;;;;;;;;4976303;28;20147;-79
2023/05/17 10:18:16;;;;;;;5.00;0.90;;;;;;;;;;4976538;28;20040;-80
2023/05/17 10:20:42;;;;;;;6.47;1.17;;;;;;;;;;4970617;28;20760;-80
2023/05/17 10:23:08;;;;;;;6.05;1.23;;;;;;;;;;4979300;28;20065;-79
2023/05/17 10:25:34;;;;;;;4.50;0.97;;;;;;;;;;4977270;28;20508;-79
2023/05/17 10:28:00;;;;;;;5.07;0.90;;;;;;;;;;4962038;28;20089;-80
2023/05/17 10:30:27;;;;;;;6.55;1.75;;;;;;;;;;4979137;28;20054;-80
2023/05/17 10:32:52;;;;;;;5.93;1.33;;;;;;;;;;4996525;28;20054;-79
2023/05/17 10:35:20;;;;;;;4.93;0.80;;;;;;;;;;4978949;28;20042;-79
2023/05/17 10:37:45;;;;;;;5.82;0.93;;;;;;;;;;4978795;28;20112;-79
2023/05/17 10:40:14;;;;;;;7.85;0.90;;;;;;;;;;4986758;28;20117;-78
2023/05/17 10:42:45;;;;;;;5.18;1.30;;;;;;;;;;4977315;28;20121;-79
2023/05/17 10:45:11;;;;;;;6.78;1.13;;;;;;;;;;4977080;28;20085;-79
2023/05/17 10:47:40;;;;;;;4.82;1.20;;;;;;;;;;4963212;28;20045;-79
2023/05/17 10:50:10;;;;;;;4.05;0.70;;;;;;;;;;4978947;28;20041;-81
2023/05/17 10:52:37;;;;;;;5.00;1.15;;;;;;;;;;4981435;28;20045;-82
2023/05/17 10:55:03;;;;;;;3.78;0.93;;;;;;;;;;4980917;28;20436;-81
2023/05/17 10:57:35;;;;;;;4.70;0.90;;;;;;;;;;4980877;28;20045;-81
2023/05/17 11:00:03;;;;;;;5.18;1.02;;;;;;;;;;4989978;28;20038;-81
2023/05/17 11:02:30;;;;;;;3.20;0.90;;;;;;;;;;4982334;28;20573;-80
2023/05/17 11:04:56;;;;;;;4.20;0.68;;;;;;;;;;4965411;28;20035;-81
2023/05/17 11:07:32;;;;;;;7.07;1.13;;;;;;;;;;4998131;28;20489;-82
2023/05/17 11:10:06;;;;;;;5.82;1.17;;;;;;;;;;4963358;28;20038;-81
2023/05/17 11:12:37;;;;;;;5.07;0.90;;;;;;;;;;4996763;28;20061;-81
2023/05/17 11:15:10;;;;;;;6.20;1.30;;;;;;;;;;4981142;28;20026;-81
2023/05/17 11:17:56;;;;;;;4.70;1.08;;;;;;;;;;4981746;28;20035;-81
2023/05/17 11:20:25;;;;;;;4.83;0.93;;;;;;;;;;4997910;28;20038;-80
2023/05/17 11:23:03;;;;;;;3.83;1.05;;;;;;;;;;4998732;28;20045;-81
2023/05/17 11:25:39;;;;;;;5.75;1.10;;;;;;;;;;4997961;28;20460;-82
2023/05/17 11:28:17;;;;;;;4.68;0.80;;;;;;;;;;4985318;28;20485;-81
2023/05/17 11:30:49;;;;;;;4.88;0.85;;;;;;;;;;4980521;28;20038;-80
2023/05/17 11:33:15;;;;;;;7.03;0.75;;;;;;;;;;4997876;28;20046;-80
2023/05/17 11:35:41;;;;;;;6.50;1.38;;;;;;;;;;4981761;28;20518;-80
2023/05/17 11:38:18;;;;;;;6.53;1.10;;;;;;;;;;4974772;28;20588;-80
2023/05/17 11:40:46;;;;;;;4.60;0.93;;;;;;;;;;4970830;28;20065;-80
2023/05/17 11:43:15;;;;;;;6.47;0.90;;;;;;;;;;4980029;28;20512;-80
2023/05/17 11:45:49;;;;;;;5.70;1.15;;;;;;;;;;4977093;28;20494;-81
2023/05/17 11:48:15;;;;;;;3.20;0.90;;;;;;;;;;4980889;28;20045;-81
2023/05/17 11:50:42;;;;;;;5.00;1.08;;;;;;;;;;4979627;28;20041;-80
2023/05/17 11:53:08;;;;;;;6.63;1.17;;;;;;;;;;4968584;28;20087;-82
2023/05/17 11:55:40;;;;;;;5.47;1.08;;;;;;;;;;4978654;28;20038;-82
2023/05/17 11:58:09;;;;;;;5.63;1.13;;;;;;;;;;4995799;28;20122;-82
2023/05/17 12:00:41;;;;;;;13.55;1.45;;;;;;;;;;4996969;28;20045;-82
2023/05/17 12:03:16;;;;;;;9.02;1.98;;;;;;;;;;4961806;28;20398;-81
2023/05/17 12:05:42;;;;;;;3.85;0.95;;;;;;;;;;4990912;28;20038;-80
2023/05/17 12:08:07;;;;;;;8.38;1.08;;;;;;;;;;4961894;28;20058;-81
2023/05/17 12:10:33;;;;;;;3.90;0.82;;;;;;;;;;4991760;28;20038;-81
2023/05/17 12:12:58;;;;;;;4.53;1.13;;;;;;;;;;4992978;28;20030;-80
2023/05/17 12:15:24;;;;;;;6.20;1.40;;;;;;;;;;4991956;28;20034;-81
2023/05/17 12:17:51;;;;;;;5.88;1.15;;;;;;;;;;4976168;28;20041;-80
2023/05/17 12:20:16;;;;;;;9.07;1.23;;;;;;;;;;4958753;28;20037;-79
2023/05/17 12:22:52;;;;;;;4.50;0.90;;;;;;;;;;4994118;28;20037;-81
2023/05/17 12:25:24;;;;;;;11.10;1.20;;;;;;;;;;4973220;28;20116;-80
2023/05/17 12:27:51;;;;;;;3.90;0.90;;;;;;;;;;4975281;28;20034;-80
2023/05/17 12:30:16;;;;;;;4.55;0.77;;;;;;;;;;4994162;28;20041;-80
2023/05/17 12:32:42;;;;;;;6.03;1.20;;;;;;;;;;4990356;28;20041;-79
2023/05/17 12:35:08;;;;;;;6.65;1.85;;;;;;;;;;4995407;28;20033;-79
2023/05/17 12:37:33;;;;;;;6.05;0.90;;;;;;;;;;4974969;28;20043;-79
2023/05/17 12:40:02;;;;;;;2.30;0.70;;;;;;;;;;4959680;28;20034;-80
2023/05/17 12:42:27;;;;;;;9.68;1.30;;;;;;;;;;4974208;28;20042;-79
2023/05/17 12:44:53;;;;;;;5.80;1.67;;;;;;;;;;4978027;28;20044;-81
2023/05/17 12:47:18;;;;;;;5.20;1.00;;;;;;;;;;4994284;28;20481;-81
2023/05/17 12:49:53;;;;;;;5.53;1.40;;;;;;;;;;4996164;28;20397;-79
2023/05/17 12:52:18;;;;;;;6.13;1.00;;;;;;;;;;4997048;28;20041;-80
2023/05/17 12:54:45;;;;;;;3.90;1.13;;;;;;;;;;4979241;28;20060;-79
2023/05/17 12:57:14;;;;;;;5.85;1.33;;;;;;;;;;4980306;28;20531;-78
2023/05/17 12:59:51;;;;;;;3.88;1.00;;;;;;;;;;4982870;28;20084;-79
2023/05/17 13:02:18;;;;;;;6.43;1.00;;;;;;;;;;4993080;28;20606;-80
2023/05/17 13:04:43;;;;;;;5.83;1.17;;;;;;;;;;4988524;28;20494;-80
2023/05/17 13:07:09;;;;;;;4.43;1.08;;;;;;;;;;4997396;28;20125;-79
2023/05/17 13:09:45;;;;;;;6.00;1.00;;;;;;;;;;4978326;28;20068;-80
2023/05/17 13:12:11;;;;;;;5.55;1.13;;;;;;;;;;4982535;28;20038;-80
2023/05/17 13:14:47;;;;;;;6.18;1.42;;;;;;;;;;4975092;28;20040;-80
2023/05/17 13:17:26;;;;;;;4.60;1.00;;;;;;;;;;4990518;28;20054;-80
2023/05/17 13:19:55;;;;;;;3.85;0.70;;;;;;;;;;4976620;28;20497;-80
2023/05/17 13:22:22;;;;;;;5.93;1.05;;;;;;;;;;4977626;28;20374;-80
2023/05/17 13:24:48;;;;;;;6.57;1.05;;;;;;;;;;4991677;28;20197;-81
2023/05/17 13:27:15;;;;;;;10.30;1.23;;;;;;;;;;4991319;28;20827;-80
2023/05/17 13:29:41;;;;;;;5.53;0.77;;;;;;;;;;4992940;28;20046;-80
2023/05/17 13:32:08;;;;;;;5.68;1.02;;;;;;;;;;4990039;28;20042;-80
2023/05/17 13:34:34;;;;;;;9.73;1.30;;;;;;;;;;4963761;28;20030;-80
2023/05/17 13:37:00;;;;;;;5.40;1.00;;;;;;;;;;4977955;28;20393;-80
2023/05/17 13:39:25;;;;;;;7.20;1.00;;;;;;;;;;4979043;28;20045;-80
2023/05/17 13:41:51;;;;;;;5.38;1.10;;;;;;;;;;4961904;28;20040;-80
2023/05/17 13:44:16;;;;;;;6.65;1.23;;;;;;;;;;4963830;28;20042;-80
2023/05/17 13:46:42;;;;;;;4.75;0.90;;;;;;;;;;4995438;28;20040;-80
2023/05/17 13:49:08;;;;;;;3.55;1.00;;;;;;;;;;4996279;28;20540;-80
2023/05/17 13:51:34;;;;;;;4.13;1.08;;;;;;;;;;4978044;28;20065;-81
2023/05/17 13:53:59;;;;;;;4.63;1.00;;;;;;;;;;4964345;28;20038;-80
2023/05/17 13:56:26;;;;;;;4.25;1.00;;;;;;;;;;4979792;28;20117;-80
2023/05/17 13:58:52;;;;;;;4.03;0.80;;;;;;;;;;4980055;28;20096;-81
2023/05/17 14:01:17;;;;;;;7.35;1.38;;;;;;;;;;4979222;28;20031;-80
2023/05/17 14:03:43;;;;;;;4.68;1.02;;;;;;;;;;4976674;28;20069;-80
2023/05/17 14:06:09;;;;;;;8.98;1.30;;;;;;;;;;4977504;28;21063;-81
2023/05/17 14:08:34;;;;;;;6.10;0.88;;;;;;;;;;4964091;28;20050;-80
2023/05/17 14:11:00;;;;;;;4.15;0.90;;;;;;;;;;4980628;28;20037;-80
2023/05/17 14:13:26;;;;;;;5.25;0.85;;;;;;;;;;4993603;28;20042;-80
2023/05/17 14:15:52;;;;;;;4.75;1.27;;;;;;;;;;4974875;28;20038;-80
2023/05/17 14:18:17;;;;;;;3.53;0.98;;;;;;;;;;4963341;28;20405;-80
2023/05/17 14:20:42;;;;;;;5.30;1.05;;;;;;;;;;4977119;28;20044;-80
2023/05/17 14:23:08;;;;;;;4.90;0.90;;;;;;;;;;4994866;28;20049;-80
2023/05/17 14:25:34;;;;;;;7.32;1.55;;;;;;;;;;4994607;28;20046;-80
2023/05/17 14:28:00;;;;;;;5.07;1.25;;;;;;;;;;4980119;28;20123;-80
2023/05/17 14:30:25;;;;;;;4.90;1.30;;;;;;;;;;4976859;28;20042;-80
2023/05/17 14:32:51;;;;;;;6.15;1.23;;;;;;;;;;4994635;28;20035;-80
2023/05/17 14:35:16;;;;;;;7.18;1.02;;;;;;;;;;4978138;28;20044;-80
2023/05/17 14:37:42;;;;;;;8.18;1.25;;;;;;;;;;4978195;28;20030;-79
2023/05/17 14:40:08;;;;;;;5.70;1.17;;;;;;;;;;4992696;28;20386;-80
2023/05/17 14:42:34;;;;;;;3.13;0.98;;;;;;;;;;4959785;28;20034;-79